Rollingwood, TX

8:41 AM CST on February 20, 2017 (GMT -0600)
Rollingwood | | Change Station

Elev 627 ft 30.27 °N, 97.78 °W | Updated 2 days ago

Rain
Rain
72.5 °F
Feels Like 77 °F
N
0.0
Wind Variable Wind from SSW
Gusts 0.0 mph

Today
High -- | Low -- °F
--% Chance of Precip.
Yesterday
High -- | Low -- °F
Precip. -- in
Pressure 29.96 in
Visibility 10.0 miles
Clouds Overcast 600 ft
Heat Index 77 °F
Dew Point 53 °F
Humidity 50%
Rainfall 0.65 in
Snow Depth Not available.
7:06 AM 6:23 PM
Waning Crescent, 33% visible
METAR KATT 201351Z AUTO 09006KT 10SM -RA OVC006 14/14 A2997 RMK AO2 RAB10 SLP144 P0000 T01440139
Pressure 29.96 in
Visibility 10.0 miles
Clouds Overcast 600 ft
Heat Index 77 °F
Dew Point 53 °F
Humidity 50%
Rainfall 0.65 in
Snow Depth Not available.
7:06 AM 6:23 PM
Waning Crescent, 33% visible
METAR KATT 201351Z AUTO 09006KT 10SM -RA OVC006 14/14 A2997 RMK AO2 RAB10 SLP144 P0000 T01440139

Get Your Daily Forecast Email!

Thanks for signing up!

Be on the lookout for a verification email in your inbox.

You'll start receiving the daily forecast at 8 AM.

×

10-Day Weather Forecast

Almanac

Astronomy

Feb. 20, 2017 Rise Set
Actual Time
Civil Twilight
Nautical Twilight
Astronomical Twilight
Moon
Length of Visible Light
Length of Day
Tomorrow will be .
, % of the Moon is Illuminated

Today's Extremes

State Highs State Lows

Community

WunderPhotos

Upload Photos

1,962,540 photos uploaded!

WunderBlog® & News

Nearby

Air Quality

  Air Quality AQ Index Pollutant
Not available.

Snow Depth

Station Depth Elevation

Earthquake Activity

City Distance Mag. Time & Date
Minimum magnitude displayed is 2.5.

Coastal Water Temperatures

Place Temperature

Stations

Nearby Weather Stations

Station Location Temp. Windchill Dew Point Humidity Wind Precip. Elev Updated Type
                   

Watches & Warnings

There are currently no watches in effect.